sensor_id;sensor_type;location;lat;lon;timestamp;P1;durP1;ratioP1;P2;durP2;ratioP2
15905;SDS011;8051;50.820;4.884;2023-09-30T00:02:07;29.17;;;26.73;;
15905;SDS011;8051;50.820;4.884;2023-09-30T00:04:39;28.23;;;25.77;;
15905;SDS011;8051;50.820;4.884;2023-09-30T00:07:06;28.27;;;25.60;;
15905;SDS011;8051;50.820;4.884;2023-09-30T00:09:35;27.70;;;25.60;;
15905;SDS011;8051;50.820;4.884;2023-09-30T00:12:02;28.20;;;25.83;;
15905;SDS011;8051;50.820;4.884;2023-09-30T00:14:30;28.13;;;26.03;;
15905;SDS011;8051;50.820;4.884;2023-09-30T00:16:57;30.37;;;27.67;;
15905;SDS011;8051;50.820;4.884;2023-09-30T00:19:25;28.30;;;25.90;;
15905;SDS011;8051;50.820;4.884;2023-09-30T00:21:54;29.83;;;27.43;;
15905;SDS011;8051;50.820;4.884;2023-09-30T00:24:21;29.80;;;27.07;;
15905;SDS011;8051;50.820;4.884;2023-09-30T00:26:49;32.10;;;28.80;;
15905;SDS011;8051;50.820;4.884;2023-09-30T00:29:16;30.53;;;27.30;;
15905;SDS011;8051;50.820;4.884;2023-09-30T00:31:44;29.80;;;27.30;;
15905;SDS011;8051;50.820;4.884;2023-09-30T00:34:11;28.60;;;26.17;;
15905;SDS011;8051;50.820;4.884;2023-09-30T00:36:39;30.10;;;27.37;;
15905;SDS011;8051;50.820;4.884;2023-09-30T00:39:08;27.47;;;25.17;;
15905;SDS011;8051;50.820;4.884;2023-09-30T00:41:36;29.57;;;26.93;;
15905;SDS011;8051;50.820;4.884;2023-09-30T00:44:05;29.40;;;27.00;;
15905;SDS011;8051;50.820;4.884;2023-09-30T00:46:35;29.70;;;26.87;;
15905;SDS011;8051;50.820;4.884;2023-09-30T00:49:05;30.73;;;28.03;;
15905;SDS011;8051;50.820;4.884;2023-09-30T00:51:32;29.53;;;27.17;;
15905;SDS011;8051;50.820;4.884;2023-09-30T00:54:00;30.97;;;28.03;;
15905;SDS011;8051;50.820;4.884;2023-09-30T00:56:30;30.47;;;28.00;;
15905;SDS011;8051;50.820;4.884;2023-09-30T00:58:57;29.73;;;27.00;;
15905;SDS011;8051;50.820;4.884;2023-09-30T01:01:25;29.93;;;27.33;;
15905;SDS011;8051;50.820;4.884;2023-09-30T01:03:53;30.60;;;27.73;;
15905;SDS011;8051;50.820;4.884;2023-09-30T01:06:21;29.67;;;27.00;;
15905;SDS011;8051;50.820;4.884;2023-09-30T01:08:48;29.87;;;27.13;;
15905;SDS011;8051;50.820;4.884;2023-09-30T01:11:17;29.13;;;26.60;;
15905;SDS011;8051;50.820;4.884;2023-09-30T01:13:46;32.37;;;27.17;;
15905;SDS011;8051;50.820;4.884;2023-09-30T01:16:14;30.40;;;27.73;;
15905;SDS011;8051;50.820;4.884;2023-09-30T01:18:42;29.93;;;27.23;;
15905;SDS011;8051;50.820;4.884;2023-09-30T01:21:09;29.73;;;26.90;;
15905;SDS011;8051;50.820;4.884;2023-09-30T01:23:39;29.10;;;26.60;;
15905;SDS011;8051;50.820;4.884;2023-09-30T01:26:08;29.57;;;26.87;;
15905;SDS011;8051;50.820;4.884;2023-09-30T01:28:37;31.30;;;28.40;;
15905;SDS011;8051;50.820;4.884;2023-09-30T01:31:05;29.80;;;26.87;;
15905;SDS011;8051;50.820;4.884;2023-09-30T01:33:33;29.70;;;27.13;;
15905;SDS011;8051;50.820;4.884;2023-09-30T01:36:00;29.50;;;26.90;;
15905;SDS011;8051;50.820;4.884;2023-09-30T01:38:28;29.13;;;26.63;;
15905;SDS011;8051;50.820;4.884;2023-09-30T01:40:57;30.13;;;27.03;;
15905;SDS011;8051;50.820;4.884;2023-09-30T01:43:24;29.70;;;27.17;;
15905;SDS011;8051;50.820;4.884;2023-09-30T01:45:52;30.33;;;27.43;;
15905;SDS011;8051;50.820;4.884;2023-09-30T01:48:19;30.60;;;27.67;;
15905;SDS011;8051;50.820;4.884;2023-09-30T01:50:47;31.67;;;28.47;;
15905;SDS011;8051;50.820;4.884;2023-09-30T01:53:14;31.70;;;28.47;;
15905;SDS011;8051;50.820;4.884;2023-09-30T01:55:42;30.17;;;27.67;;
15905;SDS011;8051;50.820;4.884;2023-09-30T01:58:11;30.33;;;27.33;;
15905;SDS011;8051;50.820;4.884;2023-09-30T02:00:38;30.90;;;28.00;;
15905;SDS011;8051;50.820;4.884;2023-09-30T02:03:06;29.30;;;26.63;;
15905;SDS011;8051;50.820;4.884;2023-09-30T02:05:33;28.73;;;26.27;;
15905;SDS011;8051;50.820;4.884;2023-09-30T02:08:02;31.03;;;27.03;;
15905;SDS011;8051;50.820;4.884;2023-09-30T02:10:31;29.60;;;27.23;;
15905;SDS011;8051;50.820;4.884;2023-09-30T02:12:59;30.10;;;27.60;;
15905;SDS011;8051;50.820;4.884;2023-09-30T02:15:28;29.53;;;26.93;;
15905;SDS011;8051;50.820;4.884;2023-09-30T02:17:56;31.27;;;28.43;;
15905;SDS011;8051;50.820;4.884;2023-09-30T02:20:25;28.90;;;26.47;;
15905;SDS011;8051;50.820;4.884;2023-09-30T02:22:55;30.37;;;27.53;;
15905;SDS011;8051;50.820;4.884;2023-09-30T02:25:24;32.30;;;29.27;;
15905;SDS011;8051;50.820;4.884;2023-09-30T02:27:51;31.93;;;29.33;;
15905;SDS011;8051;50.820;4.884;2023-09-30T02:30:19;33.30;;;29.87;;
15905;SDS011;8051;50.820;4.884;2023-09-30T02:32:48;31.83;;;29.03;;
15905;SDS011;8051;50.820;4.884;2023-09-30T02:35:15;32.40;;;29.33;;
15905;SDS011;8051;50.820;4.884;2023-09-30T02:37:44;34.50;;;30.97;;
15905;SDS011;8051;50.820;4.884;2023-09-30T02:40:12;32.13;;;29.20;;
15905;SDS011;8051;50.820;4.884;2023-09-30T02:42:40;35.70;;;32.30;;
15905;SDS011;8051;50.820;4.884;2023-09-30T02:45:08;32.87;;;29.63;;
15905;SDS011;8051;50.820;4.884;2023-09-30T02:47:37;34.47;;;31.17;;
15905;SDS011;8051;50.820;4.884;2023-09-30T02:50:07;34.80;;;30.13;;
15905;SDS011;8051;50.820;4.884;2023-09-30T02:52:37;33.90;;;30.67;;
15905;SDS011;8051;50.820;4.884;2023-09-30T02:55:06;33.73;;;30.50;;
15905;SDS011;8051;50.820;4.884;2023-09-30T02:57:34;35.40;;;31.67;;
15905;SDS011;8051;50.820;4.884;2023-09-30T03:00:02;36.20;;;32.53;;
15905;SDS011;8051;50.820;4.884;2023-09-30T03:02:39;37.30;;;33.20;;
15905;SDS011;8051;50.820;4.884;2023-09-30T03:05:08;36.23;;;32.93;;
15905;SDS011;8051;50.820;4.884;2023-09-30T03:07:37;37.93;;;34.00;;
15905;SDS011;8051;50.820;4.884;2023-09-30T03:10:07;37.70;;;33.77;;
15905;SDS011;8051;50.820;4.884;2023-09-30T03:12:35;35.20;;;31.60;;
15905;SDS011;8051;50.820;4.884;2023-09-30T03:15:03;36.60;;;32.93;;
15905;SDS011;8051;50.820;4.884;2023-09-30T03:17:31;35.27;;;31.70;;
15905;SDS011;8051;50.820;4.884;2023-09-30T03:20:00;32.93;;;29.83;;
15905;SDS011;8051;50.820;4.884;2023-09-30T03:22:35;33.43;;;30.23;;
15905;SDS011;8051;50.820;4.884;2023-09-30T03:25:03;32.50;;;29.47;;
15905;SDS011;8051;50.820;4.884;2023-09-30T03:27:32;33.27;;;30.43;;
15905;SDS011;8051;50.820;4.884;2023-09-30T03:30:00;34.27;;;30.93;;
15905;SDS011;8051;50.820;4.884;2023-09-30T03:32:29;34.83;;;31.20;;
15905;SDS011;8051;50.820;4.884;2023-09-30T03:34:58;34.93;;;31.23;;
15905;SDS011;8051;50.820;4.884;2023-09-30T03:37:26;33.40;;;30.20;;
15905;SDS011;8051;50.820;4.884;2023-09-30T03:39:55;34.73;;;31.77;;
15905;SDS011;8051;50.820;4.884;2023-09-30T03:42:23;36.80;;;33.23;;
15905;SDS011;8051;50.820;4.884;2023-09-30T03:44:51;37.03;;;33.17;;
15905;SDS011;8051;50.820;4.884;2023-09-30T03:47:18;37.67;;;34.00;;
15905;SDS011;8051;50.820;4.884;2023-09-30T03:49:46;37.53;;;33.73;;
15905;SDS011;8051;50.820;4.884;2023-09-30T03:52:14;35.23;;;31.67;;
15905;SDS011;8051;50.820;4.884;2023-09-30T03:54:43;36.13;;;32.73;;
15905;SDS011;8051;50.820;4.884;2023-09-30T03:57:12;37.27;;;33.87;;
15905;SDS011;8051;50.820;4.884;2023-09-30T03:59:41;39.03;;;35.07;;
15905;SDS011;8051;50.820;4.884;2023-09-30T04:02:11;38.63;;;34.67;;
15905;SDS011;8051;50.820;4.884;2023-09-30T04:04:39;39.60;;;35.40;;
15905;SDS011;8051;50.820;4.884;2023-09-30T04:07:07;42.83;;;36.07;;
15905;SDS011;8051;50.820;4.884;2023-09-30T04:09:35;37.47;;;33.67;;
15905;SDS011;8051;50.820;4.884;2023-09-30T04:12:03;40.97;;;36.70;;
15905;SDS011;8051;50.820;4.884;2023-09-30T04:14:32;40.70;;;36.60;;
15905;SDS011;8051;50.820;4.884;2023-09-30T04:16:59;42.17;;;37.10;;
15905;SDS011;8051;50.820;4.884;2023-09-30T04:19:26;43.77;;;38.93;;
15905;SDS011;8051;50.820;4.884;2023-09-30T04:21:55;42.43;;;37.83;;
15905;SDS011;8051;50.820;4.884;2023-09-30T04:24:23;42.57;;;38.03;;
15905;SDS011;8051;50.820;4.884;2023-09-30T04:26:50;40.73;;;36.40;;
15905;SDS011;8051;50.820;4.884;2023-09-30T04:29:22;43.70;;;39.20;;
15905;SDS011;8051;50.820;4.884;2023-09-30T04:31:51;45.37;;;38.50;;
15905;SDS011;8051;50.820;4.884;2023-09-30T04:34:19;43.13;;;38.73;;
15905;SDS011;8051;50.820;4.884;2023-09-30T04:36:47;43.67;;;39.07;;
15905;SDS011;8051;50.820;4.884;2023-09-30T04:39:14;53.47;;;40.93;;
15905;SDS011;8051;50.820;4.884;2023-09-30T04:41:43;44.57;;;38.93;;
15905;SDS011;8051;50.820;4.884;2023-09-30T04:44:12;45.63;;;39.03;;
15905;SDS011;8051;50.820;4.884;2023-09-30T04:46:39;44.40;;;39.83;;
15905;SDS011;8051;50.820;4.884;2023-09-30T04:49:12;45.13;;;39.40;;
15905;SDS011;8051;50.820;4.884;2023-09-30T04:51:40;45.33;;;40.43;;
15905;SDS011;8051;50.820;4.884;2023-09-30T04:54:08;44.47;;;39.93;;
15905;SDS011;8051;50.820;4.884;2023-09-30T04:56:36;43.57;;;39.00;;
15905;SDS011;8051;50.820;4.884;2023-09-30T04:59:04;45.47;;;40.57;;
15905;SDS011;8051;50.820;4.884;2023-09-30T05:01:32;49.13;;;41.67;;
15905;SDS011;8051;50.820;4.884;2023-09-30T05:03:59;47.70;;;40.23;;
15905;SDS011;8051;50.820;4.884;2023-09-30T05:06:30;46.57;;;40.53;;
15905;SDS011;8051;50.820;4.884;2023-09-30T05:08:58;51.03;;;41.77;;
15905;SDS011;8051;50.820;4.884;2023-09-30T05:11:26;46.13;;;41.23;;
15905;SDS011;8051;50.820;4.884;2023-09-30T05:13:53;47.00;;;41.97;;
15905;SDS011;8051;50.820;4.884;2023-09-30T05:16:21;51.33;;;42.53;;
15905;SDS011;8051;50.820;4.884;2023-09-30T05:18:48;46.53;;;41.63;;
15905;SDS011;8051;50.820;4.884;2023-09-30T05:21:16;47.73;;;40.20;;
15905;SDS011;8051;50.820;4.884;2023-09-30T05:23:45;54.90;;;42.87;;
15905;SDS011;8051;50.820;4.884;2023-09-30T05:26:13;50.27;;;40.90;;
15905;SDS011;8051;50.820;4.884;2023-09-30T05:28:40;50.17;;;40.40;;
15905;SDS011;8051;50.820;4.884;2023-09-30T05:31:08;45.40;;;40.00;;
15905;SDS011;8051;50.820;4.884;2023-09-30T05:33:36;50.47;;;41.63;;
15905;SDS011;8051;50.820;4.884;2023-09-30T05:36:04;45.67;;;40.60;;
15905;SDS011;8051;50.820;4.884;2023-09-30T05:38:31;45.43;;;38.00;;
15905;SDS011;8051;50.820;4.884;2023-09-30T05:41:00;48.87;;;40.70;;
15905;SDS011;8051;50.820;4.884;2023-09-30T05:43:28;57.27;;;41.93;;
15905;SDS011;8051;50.820;4.884;2023-09-30T05:45:56;46.33;;;38.80;;
15905;SDS011;8051;50.820;4.884;2023-09-30T05:48:24;52.50;;;41.27;;
15905;SDS011;8051;50.820;4.884;2023-09-30T05:50:51;50.00;;;40.43;;
15905;SDS011;8051;50.820;4.884;2023-09-30T05:53:19;42.27;;;37.57;;
15905;SDS011;8051;50.820;4.884;2023-09-30T05:55:46;40.73;;;36.50;;
15905;SDS011;8051;50.820;4.884;2023-09-30T05:58:15;42.77;;;38.07;;
15905;SDS011;8051;50.820;4.884;2023-09-30T06:00:43;41.63;;;37.43;;
15905;SDS011;8051;50.820;4.884;2023-09-30T06:03:10;43.07;;;38.53;;
15905;SDS011;8051;50.820;4.884;2023-09-30T06:05:38;45.83;;;40.03;;
15905;SDS011;8051;50.820;4.884;2023-09-30T06:08:07;42.60;;;37.90;;
15905;SDS011;8051;50.820;4.884;2023-09-30T06:10:39;44.00;;;38.17;;
15905;SDS011;8051;50.820;4.884;2023-09-30T06:13:08;44.03;;;36.90;;
15905;SDS011;8051;50.820;4.884;2023-09-30T06:15:38;43.80;;;37.83;;
15905;SDS011;8051;50.820;4.884;2023-09-30T06:18:07;47.50;;;38.17;;
15905;SDS011;8051;50.820;4.884;2023-09-30T06:20:34;45.50;;;38.63;;
15905;SDS011;8051;50.820;4.884;2023-09-30T06:23:02;43.03;;;36.57;;
15905;SDS011;8051;50.820;4.884;2023-09-30T06:25:30;40.37;;;36.17;;
15905;SDS011;8051;50.820;4.884;2023-09-30T06:27:58;39.40;;;35.30;;
15905;SDS011;8051;50.820;4.884;2023-09-30T06:30:26;39.77;;;35.73;;
15905;SDS011;8051;50.820;4.884;2023-09-30T06:32:57;41.73;;;35.90;;
15905;SDS011;8051;50.820;4.884;2023-09-30T06:35:25;45.47;;;36.67;;
15905;SDS011;8051;50.820;4.884;2023-09-30T06:37:53;42.67;;;37.67;;
15905;SDS011;8051;50.820;4.884;2023-09-30T06:40:20;41.30;;;36.97;;
15905;SDS011;8051;50.820;4.884;2023-09-30T06:42:49;40.97;;;36.53;;
15905;SDS011;8051;50.820;4.884;2023-09-30T06:45:17;40.50;;;36.30;;
15905;SDS011;8051;50.820;4.884;2023-09-30T06:47:47;39.23;;;35.23;;
15905;SDS011;8051;50.820;4.884;2023-09-30T06:50:16;40.70;;;36.47;;
15905;SDS011;8051;50.820;4.884;2023-09-30T06:52:43;40.30;;;36.23;;
15905;SDS011;8051;50.820;4.884;2023-09-30T06:55:13;41.73;;;37.50;;
15905;SDS011;8051;50.820;4.884;2023-09-30T06:57:41;43.47;;;37.20;;
15905;SDS011;8051;50.820;4.884;2023-09-30T07:00:09;44.40;;;39.03;;
15905;SDS011;8051;50.820;4.884;2023-09-30T07:02:38;46.87;;;39.37;;
15905;SDS011;8051;50.820;4.884;2023-09-30T07:05:07;46.70;;;40.10;;
15905;SDS011;8051;50.820;4.884;2023-09-30T07:07:36;48.33;;;41.27;;
15905;SDS011;8051;50.820;4.884;2023-09-30T07:10:05;43.87;;;39.23;;
15905;SDS011;8051;50.820;4.884;2023-09-30T07:12:33;41.53;;;37.03;;
15905;SDS011;8051;50.820;4.884;2023-09-30T07:15:01;43.27;;;38.60;;
15905;SDS011;8051;50.820;4.884;2023-09-30T07:17:29;49.17;;;39.87;;
15905;SDS011;8051;50.820;4.884;2023-09-30T07:19:57;46.97;;;37.60;;
15905;SDS011;8051;50.820;4.884;2023-09-30T07:22:24;47.33;;;37.23;;
15905;SDS011;8051;50.820;4.884;2023-09-30T07:24:53;40.13;;;35.83;;
15905;SDS011;8051;50.820;4.884;2023-09-30T07:27:21;45.57;;;38.03;;
15905;SDS011;8051;50.820;4.884;2023-09-30T07:29:48;46.00;;;36.27;;
15905;SDS011;8051;50.820;4.884;2023-09-30T07:32:16;45.93;;;38.37;;
15905;SDS011;8051;50.820;4.884;2023-09-30T07:34:44;45.33;;;37.67;;
15905;SDS011;8051;50.820;4.884;2023-09-30T07:37:11;42.27;;;37.67;;
15905;SDS011;8051;50.820;4.884;2023-09-30T07:39:40;41.27;;;36.67;;
15905;SDS011;8051;50.820;4.884;2023-09-30T07:42:09;49.63;;;38.30;;
15905;SDS011;8051;50.820;4.884;2023-09-30T07:44:37;42.53;;;36.87;;
15905;SDS011;8051;50.820;4.884;2023-09-30T07:47:05;55.67;;;39.70;;
15905;SDS011;8051;50.820;4.884;2023-09-30T07:49:34;44.27;;;39.47;;
15905;SDS011;8051;50.820;4.884;2023-09-30T07:52:01;49.60;;;39.07;;
15905;SDS011;8051;50.820;4.884;2023-09-30T07:54:29;47.03;;;39.73;;
15905;SDS011;8051;50.820;4.884;2023-09-30T07:56:56;44.03;;;39.47;;
15905;SDS011;8051;50.820;4.884;2023-09-30T07:59:25;46.73;;;39.13;;
15905;SDS011;8051;50.820;4.884;2023-09-30T08:01:53;43.97;;;39.33;;
15905;SDS011;8051;50.820;4.884;2023-09-30T08:04:22;43.50;;;39.20;;
15905;SDS011;8051;50.820;4.884;2023-09-30T08:06:50;46.67;;;39.20;;
15905;SDS011;8051;50.820;4.884;2023-09-30T08:09:18;50.67;;;41.07;;
15905;SDS011;8051;50.820;4.884;2023-09-30T08:11:47;45.33;;;39.80;;
15905;SDS011;8051;50.820;4.884;2023-09-30T08:14:15;45.73;;;40.60;;
15905;SDS011;8051;50.820;4.884;2023-09-30T08:16:44;47.47;;;41.13;;
15905;SDS011;8051;50.820;4.884;2023-09-30T08:19:12;43.40;;;38.77;;
15905;SDS011;8051;50.820;4.884;2023-09-30T08:21:39;47.33;;;40.70;;
15905;SDS011;8051;50.820;4.884;2023-09-30T08:24:07;48.40;;;40.97;;
15905;SDS011;8051;50.820;4.884;2023-09-30T08:26:35;44.33;;;39.57;;
15905;SDS011;8051;50.820;4.884;2023-09-30T08:29:03;46.83;;;41.77;;
15905;SDS011;8051;50.820;4.884;2023-09-30T08:31:31;53.73;;;43.57;;
15905;SDS011;8051;50.820;4.884;2023-09-30T08:34:00;49.50;;;44.27;;
15905;SDS011;8051;50.820;4.884;2023-09-30T08:36:30;47.93;;;43.20;;
15905;SDS011;8051;50.820;4.884;2023-09-30T08:38:57;45.67;;;41.27;;
15905;SDS011;8051;50.820;4.884;2023-09-30T08:41:28;47.10;;;42.00;;
15905;SDS011;8051;50.820;4.884;2023-09-30T08:43:59;51.37;;;43.90;;
15905;SDS011;8051;50.820;4.884;2023-09-30T08:46:28;45.20;;;40.20;;
15905;SDS011;8051;50.820;4.884;2023-09-30T08:48:59;47.40;;;42.17;;
15905;SDS011;8051;50.820;4.884;2023-09-30T08:51:31;48.17;;;43.20;;
15905;SDS011;8051;50.820;4.884;2023-09-30T08:53:59;48.47;;;43.73;;
15905;SDS011;8051;50.820;4.884;2023-09-30T08:56:29;51.57;;;46.57;;
15905;SDS011;8051;50.820;4.884;2023-09-30T08:58:59;52.77;;;47.27;;
15905;SDS011;8051;50.820;4.884;2023-09-30T09:01:28;53.97;;;48.43;;
15905;SDS011;8051;50.820;4.884;2023-09-30T09:03:56;53.80;;;48.03;;
15905;SDS011;8051;50.820;4.884;2023-09-30T09:06:26;54.07;;;48.43;;
15905;SDS011;8051;50.820;4.884;2023-09-30T09:08:53;57.33;;;51.43;;
15905;SDS011;8051;50.820;4.884;2023-09-30T09:11:36;55.37;;;49.43;;
15905;SDS011;8051;50.820;4.884;2023-09-30T09:14:04;56.13;;;50.23;;
15905;SDS011;8051;50.820;4.884;2023-09-30T09:16:32;54.17;;;48.67;;
15905;SDS011;8051;50.820;4.884;2023-09-30T09:19:00;56.13;;;50.30;;
15905;SDS011;8051;50.820;4.884;2023-09-30T09:21:52;56.13;;;50.23;;
15905;SDS011;8051;50.820;4.884;2023-09-30T09:24:28;59.63;;;53.33;;
15905;SDS011;8051;50.820;4.884;2023-09-30T09:27:05;58.50;;;52.30;;
15905;SDS011;8051;50.820;4.884;2023-09-30T09:29:34;56.87;;;50.83;;
15905;SDS011;8051;50.820;4.884;2023-09-30T09:32:08;59.03;;;52.87;;
15905;SDS011;8051;50.820;4.884;2023-09-30T09:34:36;64.10;;;53.40;;
15905;SDS011;8051;50.820;4.884;2023-09-30T09:37:15;56.70;;;50.70;;
15905;SDS011;8051;50.820;4.884;2023-09-30T09:39:50;58.77;;;52.50;;
15905;SDS011;8051;50.820;4.884;2023-09-30T09:42:25;58.10;;;51.93;;
15905;SDS011;8051;50.820;4.884;2023-09-30T09:44:54;59.20;;;52.23;;
15905;SDS011;8051;50.820;4.884;2023-09-30T09:47:23;59.40;;;52.93;;
15905;SDS011;8051;50.820;4.884;2023-09-30T09:49:50;59.10;;;52.83;;
15905;SDS011;8051;50.820;4.884;2023-09-30T09:52:21;59.47;;;53.27;;
15905;SDS011;8051;50.820;4.884;2023-09-30T09:54:50;56.83;;;50.83;;
15905;SDS011;8051;50.820;4.884;2023-09-30T09:57:18;58.10;;;52.40;;
15905;SDS011;8051;50.820;4.884;2023-09-30T09:59:46;58.67;;;52.50;;
15905;SDS011;8051;50.820;4.884;2023-09-30T10:02:14;56.60;;;50.80;;
15905;SDS011;8051;50.820;4.884;2023-09-30T10:04:43;55.47;;;49.83;;
15905;SDS011;8051;50.820;4.884;2023-09-30T10:07:12;54.13;;;48.77;;
15905;SDS011;8051;50.820;4.884;2023-09-30T10:09:47;56.30;;;50.60;;
15905;SDS011;8051;50.820;4.884;2023-09-30T10:12:17;55.27;;;49.73;;
15905;SDS011;8051;50.820;4.884;2023-09-30T10:14:46;56.57;;;50.77;;
15905;SDS011;8051;50.820;4.884;2023-09-30T10:17:14;56.07;;;50.03;;
15905;SDS011;8051;50.820;4.884;2023-09-30T10:22:32;50.73;;;45.47;;
15905;SDS011;8051;50.820;4.884;2023-09-30T10:25:01;50.13;;;45.03;;
15905;SDS011;8051;50.820;4.884;2023-09-30T10:28:16;47.20;;;42.60;;
15905;SDS011;8051;50.820;4.884;2023-09-30T10:31:12;49.23;;;44.43;;
15905;SDS011;8051;50.820;4.884;2023-09-30T10:36:47;48.57;;;43.57;;
15905;SDS011;8051;50.820;4.884;2023-09-30T10:51:00;46.63;;;42.23;;
15905;SDS011;8051;50.820;4.884;2023-09-30T10:53:40;46.23;;;42.13;;
15905;SDS011;8051;50.820;4.884;2023-09-30T10:56:12;46.93;;;42.93;;
15905;SDS011;8051;50.820;4.884;2023-09-30T10:58:43;46.77;;;42.37;;
15905;SDS011;8051;50.820;4.884;2023-09-30T11:01:11;46.10;;;42.30;;
15905;SDS011;8051;50.820;4.884;2023-09-30T11:03:38;45.50;;;41.47;;
15905;SDS011;8051;50.820;4.884;2023-09-30T11:06:06;42.13;;;38.83;;
15905;SDS011;8051;50.820;4.884;2023-09-30T11:08:38;35.03;;;32.57;;
15905;SDS011;8051;50.820;4.884;2023-09-30T11:11:11;40.57;;;37.47;;
15905;SDS011;8051;50.820;4.884;2023-09-30T11:13:39;41.03;;;37.93;;
15905;SDS011;8051;50.820;4.884;2023-09-30T11:16:08;38.27;;;35.17;;
15905;SDS011;8051;50.820;4.884;2023-09-30T11:18:35;37.67;;;34.83;;
15905;SDS011;8051;50.820;4.884;2023-09-30T11:21:04;36.63;;;33.90;;
15905;SDS011;8051;50.820;4.884;2023-09-30T11:23:33;38.27;;;35.07;;
15905;SDS011;8051;50.820;4.884;2023-09-30T11:26:01;35.70;;;33.10;;
15905;SDS011;8051;50.820;4.884;2023-09-30T11:28:36;35.10;;;32.70;;
15905;SDS011;8051;50.820;4.884;2023-09-30T11:31:07;35.10;;;32.50;;
15905;SDS011;8051;50.820;4.884;2023-09-30T11:33:50;34.30;;;31.70;;
15905;SDS011;8051;50.820;4.884;2023-09-30T11:36:19;33.03;;;30.53;;
15905;SDS011;8051;50.820;4.884;2023-09-30T11:38:48;32.93;;;30.37;;
15905;SDS011;8051;50.820;4.884;2023-09-30T11:41:18;31.47;;;29.07;;
15905;SDS011;8051;50.820;4.884;2023-09-30T11:44:00;28.90;;;26.70;;
15905;SDS011;8051;50.820;4.884;2023-09-30T11:46:31;25.67;;;23.90;;
15905;SDS011;8051;50.820;4.884;2023-09-30T11:49:00;26.23;;;24.43;;
15905;SDS011;8051;50.820;4.884;2023-09-30T11:51:28;25.40;;;23.60;;
15905;SDS011;8051;50.820;4.884;2023-09-30T11:53:56;26.17;;;24.07;;
15905;SDS011;8051;50.820;4.884;2023-09-30T11:56:24;27.63;;;25.53;;
15905;SDS011;8051;50.820;4.884;2023-09-30T11:58:55;27.70;;;25.63;;
15905;SDS011;8051;50.820;4.884;2023-09-30T12:01:24;25.30;;;23.20;;
15905;SDS011;8051;50.820;4.884;2023-09-30T12:03:53;24.83;;;22.77;;
15905;SDS011;8051;50.820;4.884;2023-09-30T12:06:21;24.77;;;23.00;;
15905;SDS011;8051;50.820;4.884;2023-09-30T12:08:49;23.53;;;21.93;;
15905;SDS011;8051;50.820;4.884;2023-09-30T12:11:17;21.90;;;20.40;;
15905;SDS011;8051;50.820;4.884;2023-09-30T12:13:45;21.87;;;20.47;;
15905;SDS011;8051;50.820;4.884;2023-09-30T12:16:14;23.20;;;21.27;;
15905;SDS011;8051;50.820;4.884;2023-09-30T12:18:42;22.50;;;20.80;;
15905;SDS011;8051;50.820;4.884;2023-09-30T12:21:11;23.50;;;21.60;;
15905;SDS011;8051;50.820;4.884;2023-09-30T12:23:39;22.87;;;21.07;;
15905;SDS011;8051;50.820;4.884;2023-09-30T12:26:08;22.20;;;20.70;;
15905;SDS011;8051;50.820;4.884;2023-09-30T12:28:37;21.93;;;20.40;;
15905;SDS011;8051;50.820;4.884;2023-09-30T12:31:05;20.63;;;19.13;;
15905;SDS011;8051;50.820;4.884;2023-09-30T12:33:33;21.33;;;19.70;;
15905;SDS011;8051;50.820;4.884;2023-09-30T12:36:00;22.13;;;20.10;;
15905;SDS011;8051;50.820;4.884;2023-09-30T12:38:29;21.77;;;20.33;;
15905;SDS011;8051;50.820;4.884;2023-09-30T12:40:57;22.33;;;20.70;;
15905;SDS011;8051;50.820;4.884;2023-09-30T12:43:25;20.23;;;19.10;;
15905;SDS011;8051;50.820;4.884;2023-09-30T12:45:53;22.17;;;20.67;;
15905;SDS011;8051;50.820;4.884;2023-09-30T12:48:20;20.50;;;19.00;;
15905;SDS011;8051;50.820;4.884;2023-09-30T12:50:48;19.70;;;18.20;;
15905;SDS011;8051;50.820;4.884;2023-09-30T12:53:15;18.90;;;17.60;;
15905;SDS011;8051;50.820;4.884;2023-09-30T12:55:44;19.13;;;17.60;;
15905;SDS011;8051;50.820;4.884;2023-09-30T12:58:12;19.67;;;18.20;;
15905;SDS011;8051;50.820;4.884;2023-09-30T13:00:40;19.57;;;18.17;;
15905;SDS011;8051;50.820;4.884;2023-09-30T13:03:07;19.57;;;18.20;;
15905;SDS011;8051;50.820;4.884;2023-09-30T13:05:35;18.93;;;17.67;;
15905;SDS011;8051;50.820;4.884;2023-09-30T13:08:02;19.03;;;17.77;;
15905;SDS011;8051;50.820;4.884;2023-09-30T13:10:30;19.43;;;17.97;;
15905;SDS011;8051;50.820;4.884;2023-09-30T13:12:59;19.27;;;17.90;;
15905;SDS011;8051;50.820;4.884;2023-09-30T13:15:27;20.27;;;18.50;;
15905;SDS011;8051;50.820;4.884;2023-09-30T13:17:54;19.83;;;18.33;;
15905;SDS011;8051;50.820;4.884;2023-09-30T13:20:22;19.93;;;18.40;;
15905;SDS011;8051;50.820;4.884;2023-09-30T13:22:49;19.77;;;18.20;;
15905;SDS011;8051;50.820;4.884;2023-09-30T13:25:16;18.33;;;17.10;;
15905;SDS011;8051;50.820;4.884;2023-09-30T13:27:44;19.37;;;17.77;;
15905;SDS011;8051;50.820;4.884;2023-09-30T13:30:13;18.73;;;17.60;;
15905;SDS011;8051;50.820;4.884;2023-09-30T13:32:43;19.17;;;17.90;;
15905;SDS011;8051;50.820;4.884;2023-09-30T13:35:11;19.97;;;18.37;;
15905;SDS011;8051;50.820;4.884;2023-09-30T13:37:39;18.43;;;17.37;;
15905;SDS011;8051;50.820;4.884;2023-09-30T13:40:07;19.57;;;18.20;;
15905;SDS011;8051;50.820;4.884;2023-09-30T13:42:37;19.27;;;17.97;;
15905;SDS011;8051;50.820;4.884;2023-09-30T13:45:04;19.57;;;18.07;;
15905;SDS011;8051;50.820;4.884;2023-09-30T13:47:35;20.67;;;19.07;;
15905;SDS011;8051;50.820;4.884;2023-09-30T13:50:02;18.43;;;17.00;;
15905;SDS011;8051;50.820;4.884;2023-09-30T13:52:32;19.73;;;18.37;;
15905;SDS011;8051;50.820;4.884;2023-09-30T13:55:00;20.13;;;18.73;;
15905;SDS011;8051;50.820;4.884;2023-09-30T13:57:28;18.50;;;17.20;;
15905;SDS011;8051;50.820;4.884;2023-09-30T13:59:56;18.93;;;17.40;;
15905;SDS011;8051;50.820;4.884;2023-09-30T14:02:23;19.03;;;17.67;;
15905;SDS011;8051;50.820;4.884;2023-09-30T14:04:53;18.60;;;17.17;;
15905;SDS011;8051;50.820;4.884;2023-09-30T14:07:21;17.83;;;16.33;;
15905;SDS011;8051;50.820;4.884;2023-09-30T14:09:48;17.50;;;16.23;;
15905;SDS011;8051;50.820;4.884;2023-09-30T14:12:17;18.30;;;17.20;;
15905;SDS011;8051;50.820;4.884;2023-09-30T14:14:45;20.40;;;18.77;;
15905;SDS011;8051;50.820;4.884;2023-09-30T14:17:13;20.47;;;18.93;;
15905;SDS011;8051;50.820;4.884;2023-09-30T14:19:40;17.97;;;16.70;;
15905;SDS011;8051;50.820;4.884;2023-09-30T14:22:09;18.97;;;17.57;;
15905;SDS011;8051;50.820;4.884;2023-09-30T14:24:37;19.40;;;17.90;;
15905;SDS011;8051;50.820;4.884;2023-09-30T14:27:05;17.97;;;16.50;;
15905;SDS011;8051;50.820;4.884;2023-09-30T14:29:32;18.10;;;16.80;;
15905;SDS011;8051;50.820;4.884;2023-09-30T14:32:00;17.80;;;16.53;;
15905;SDS011;8051;50.820;4.884;2023-09-30T14:34:28;18.40;;;17.03;;
15905;SDS011;8051;50.820;4.884;2023-09-30T14:36:55;18.50;;;17.27;;
15905;SDS011;8051;50.820;4.884;2023-09-30T14:39:24;17.80;;;16.60;;
15905;SDS011;8051;50.820;4.884;2023-09-30T14:41:52;17.57;;;16.50;;
15905;SDS011;8051;50.820;4.884;2023-09-30T14:44:20;17.50;;;16.30;;
15905;SDS011;8051;50.820;4.884;2023-09-30T14:46:49;18.33;;;17.03;;
15905;SDS011;8051;50.820;4.884;2023-09-30T14:49:16;19.17;;;17.73;;
15905;SDS011;8051;50.820;4.884;2023-09-30T14:51:44;17.80;;;16.60;;
15905;SDS011;8051;50.820;4.884;2023-09-30T14:54:13;18.80;;;17.37;;
15905;SDS011;8051;50.820;4.884;2023-09-30T14:56:42;17.80;;;16.67;;
15905;SDS011;8051;50.820;4.884;2023-09-30T14:59:10;18.33;;;17.03;;
15905;SDS011;8051;50.820;4.884;2023-09-30T15:01:37;18.87;;;17.47;;